Time;durP1;ratioP1;P1;durP2;ratioP2;P2;SDS_P1;SDS_P2;PMS_P1;PMS_P2;Temp;Humidity;BMP_temperature;BMP_pressure;BME280_temperature;BME280_humidity;BME280_pressure;Samples;Min_cycle;Max_cycle;Signal;HPM_P1;HPM_P2
2023/08/25 00:00:39;;;;;;;9.00;8.10;;;;;;;26.11;100.00;101195.19;2123259;27;20659;-65
2023/08/25 00:01:40;;;;;;;9.30;7.53;;;;;;;26.04;100.00;101189.28;2121253;27;20585;-66
2023/08/25 00:02:40;;;;;;;8.97;8.07;;;;;;;26.05;100.00;101193.69;2115626;27;20174;-66
2023/08/25 00:03:40;;;;;;;9.85;8.10;;;;;;;26.06;100.00;101195.97;2123668;27;20174;-66
2023/08/25 00:04:41;;;;;;;8.48;7.68;;;;;;;26.07;100.00;101199.59;2122634;27;20671;-66
2023/08/25 00:05:42;;;;;;;10.45;8.35;;;;;;;26.00;100.00;101185.97;2115439;27;20685;-66
2023/08/25 00:06:42;;;;;;;10.02;8.80;;;;;;;26.01;100.00;101179.00;2114562;28;20271;-66
2023/08/25 00:07:43;;;;;;;12.00;9.10;;;;;;;26.08;100.00;101186.94;2114765;27;20193;-66
2023/08/25 00:08:43;;;;;;;12.40;8.90;;;;;;;25.16;100.00;101045.75;2118280;27;20193;-66
2023/08/25 00:09:45;;;;;;;13.82;8.95;;;;;;;26.04;100.00;101186.44;2120590;27;20174;-66
2023/08/25 00:10:45;;;;;;;21.60;9.40;;;;;;;26.02;100.00;101184.16;2114774;28;20204;-66
2023/08/25 00:11:46;;;;;;;15.53;8.90;;;;;;;26.01;100.00;101179.00;2114848;27;20186;-65
2023/08/25 00:12:47;;;;;;;12.17;8.73;;;;;;;26.01;100.00;101181.84;2115069;28;20178;-65
2023/08/25 00:13:47;;;;;;;9.55;8.55;;;;;;;25.99;100.00;101179.53;2114598;28;20189;-66
2023/08/25 00:14:48;;;;;;;9.07;8.27;;;;;;;25.96;100.00;101182.63;2115216;27;20562;-66
2023/08/25 00:15:49;;;;;;;8.60;7.70;;;;;;;25.49;100.00;101110.88;2114553;28;20186;-66
2023/08/25 00:16:49;;;;;;;8.20;7.40;;;;;;;25.98;100.00;101185.72;2114605;27;20194;-66
2023/08/25 00:17:53;;;;;;;11.10;8.13;;;;;;;25.25;100.00;101064.53;2114876;28;20210;-66
2023/08/25 00:18:53;;;;;;;8.40;7.60;;;;;;;25.22;100.00;101063.53;2114642;27;20238;-66
2023/08/25 00:19:54;;;;;;;9.63;8.17;;;;;;;25.74;100.00;101137.31;2116106;27;20178;-66
2023/08/25 00:20:54;;;;;;;8.53;7.73;;;;;;;25.97;100.00;101172.81;2123153;27;20208;-65
2023/08/25 00:21:55;;;;;;;8.57;7.63;;;;;;;25.97;100.00;101170.75;2123446;27;20651;-65
2023/08/25 00:22:55;;;;;;;9.50;8.13;;;;;;;25.62;100.00;101116.75;2122750;27;20648;-66
2023/08/25 00:23:55;;;;;;;8.97;8.07;;;;;;;25.84;100.00;101162.03;2122857;27;20728;-65
2023/08/25 00:24:56;;;;;;;8.63;7.83;;;;;;;25.96;100.00;101180.59;2117810;27;20194;-66
2023/08/25 00:25:56;;;;;;;9.10;7.50;;;;;;;25.93;100.00;101180.84;2118439;27;20655;-66
2023/08/25 00:26:57;;;;;;;9.33;7.87;;;;;;;25.89;100.00;101174.66;2122948;27;20251;-65
2023/08/25 00:27:58;;;;;;;11.67;8.33;;;;;;;25.85;100.00;101188.34;2121428;27;20166;-66
2023/08/25 00:28:58;;;;;;;8.90;8.10;;;;;;;25.82;100.00;101181.66;2114989;28;20162;-66
2023/08/25 00:29:59;;;;;;;9.43;8.53;;;;;;;25.79;100.00;101182.69;2123439;27;20633;-66
2023/08/25 00:30:59;;;;;;;13.17;8.20;;;;;;;25.32;100.00;101110.19;2114979;27;20194;-65
2023/08/25 00:32:00;;;;;;;9.37;8.47;;;;;;;25.78;100.00;101188.91;2121528;27;20305;-66
2023/08/25 00:33:00;;;;;;;9.20;8.30;;;;;;;25.69;100.00;101175.03;2122932;27;20587;-65
2023/08/25 00:34:02;;;;;;;11.30;8.70;;;;;;;25.70;100.00;101182.25;2118246;27;20194;-66
2023/08/25 00:35:03;;;;;;;8.90;8.10;;;;;;;25.69;100.00;101183.53;2117848;27;20178;-66
2023/08/25 00:36:03;;;;;;;10.33;8.33;;;;;;;25.67;100.00;101188.97;2122773;27;20180;-65
2023/08/25 00:37:04;;;;;;;9.37;8.40;;;;;;;25.66;100.00;101190.25;2121853;27;20529;-66
2023/08/25 00:38:04;;;;;;;11.70;7.63;;;;;;;25.64;100.00;101190.03;2122337;27;20181;-66
2023/08/25 00:39:05;;;;;;;9.50;8.60;;;;;;;25.36;100.00;101146.78;2123371;27;20264;-66
2023/08/25 00:40:06;;;;;;;9.10;8.10;;;;;;;25.01;100.00;101102.03;2117765;27;20643;-66
2023/08/25 00:41:06;;;;;;;9.60;8.23;;;;;;;25.59;100.00;101188.72;2116834;27;20667;-65
2023/08/25 00:42:07;;;;;;;9.30;8.27;;;;;;;25.57;100.00;101188.50;2114724;27;20178;-66
2023/08/25 00:43:07;;;;;;;9.60;8.70;;;;;;;25.55;100.00;101185.41;2114407;27;20233;-66
2023/08/25 00:44:07;;;;;;;10.73;8.53;;;;;;;25.53;100.00;101187.22;2114509;28;20182;-66
2023/08/25 00:45:08;;;;;;;9.38;7.97;;;;;;;25.48;100.00;101183.09;2114374;28;20674;-66
2023/08/25 00:46:11;;;;;;;9.43;8.30;;;;;;;25.47;100.00;101189.28;2114640;27;20220;-66
2023/08/25 00:47:11;;;;;;;9.73;8.50;;;;;;;25.44;100.00;101188.28;2123271;27;20701;-66
2023/08/25 00:48:11;;;;;;;10.10;9.03;;;;;;;25.44;100.00;101185.44;2122504;27;20689;-66
2023/08/25 00:49:13;;;;;;;9.80;8.80;;;;;;;25.45;100.00;101186.22;2116162;27;20263;-66
2023/08/25 00:50:14;;;;;;;9.37;8.43;;;;;;;25.35;100.00;101184.97;2114294;28;20246;-66
2023/08/25 00:51:15;;;;;;;9.77;8.77;;;;;;;25.32;100.00;101194.50;2114397;28;20189;-66
2023/08/25 00:52:17;;;;;;;10.70;9.10;;;;;;;25.17;100.00;101163.59;2118025;27;20197;-65
2023/08/25 00:53:18;;;;;;;10.30;8.50;;;;;;;25.25;100.00;101190.16;2120008;27;20712;-65
2023/08/25 00:54:23;;;;;;;9.27;8.17;;;;;;;25.22;100.00;101190.38;2113347;28;20182;-66
2023/08/25 00:55:24;;;;;;;9.87;8.37;;;;;;;25.13;100.00;101177.25;2113551;28;20167;-66
2023/08/25 00:56:25;;;;;;;11.60;8.77;;;;;;;25.24;100.00;101190.66;2114749;28;20261;-66
2023/08/25 00:57:25;;;;;;;9.47;8.47;;;;;;;25.25;100.00;101193.00;2123201;27;20178;-66
2023/08/25 00:58:26;;;;;;;10.33;9.10;;;;;;;25.27;100.00;101195.28;2115527;27;20186;-66
2023/08/25 00:59:27;;;;;;;10.97;8.70;;;;;;;25.26;100.00;101186.03;2114508;28;20186;-66
2023/08/25 01:00:27;;;;;;;10.20;8.70;;;;;;;25.27;100.00;101189.63;2114393;28;20190;-66
2023/08/25 01:01:28;;;;;;;13.53;8.67;;;;;;;25.23;100.00;101186.28;2121159;27;20609;-66
2023/08/25 01:02:28;;;;;;;11.43;8.90;;;;;;;24.54;100.00;101082.53;2129123;27;20172;-66
2023/08/25 01:03:29;;;;;;;10.63;9.03;;;;;;;25.25;100.00;101192.19;2122371;27;20220;-66
2023/08/25 01:04:31;;;;;;;9.73;8.60;;;;;;;25.24;100.00;101194.25;2123113;27;20197;-65
2023/08/25 01:05:31;;;;;;;9.77;8.77;;;;;;;24.40;100.00;101058.06;2114418;27;20651;-66
2023/08/25 01:06:32;;;;;;;12.50;9.20;;;;;;;25.23;100.00;101189.88;2114346;28;20569;-66
2023/08/25 01:07:32;;;;;;;10.53;9.00;;;;;;;25.26;100.00;101190.91;2113752;28;20210;-65
2023/08/25 01:08:33;;;;;;;10.37;9.07;;;;;;;25.29;100.00;101189.91;2118910;27;20272;-66
2023/08/25 01:09:34;;;;;;;10.30;9.00;;;;;;;25.30;100.00;101188.59;2119074;27;20193;-66
2023/08/25 01:11:03;;;;;;;9.40;8.50;;;;;;;25.26;100.00;101188.09;2116950;27;20650;-65
2023/08/25 01:12:08;;;;;;;12.47;9.20;;;;;;;25.29;100.00;101189.91;2122540;27;20204;-66
2023/08/25 01:13:20;;;;;;;10.33;8.53;;;;;;;25.26;100.00;101188.09;2122346;27;20195;-66
2023/08/25 01:14:26;;;;;;;9.17;8.20;;;;;;;25.23;100.00;101181.34;2117224;27;20245;-66
2023/08/25 01:15:31;;;;;;;9.90;9.00;;;;;;;25.20;100.00;101181.63;2113947;28;20212;-66
2023/08/25 01:16:37;;;;;;;12.90;8.90;;;;;;;24.81;100.00;101122.19;2114108;28;20706;-66
2023/08/25 01:18:04;;;;;;;12.10;9.37;;;;;;;25.22;100.00;101191.16;2114227;28;20190;-66
2023/08/25 01:19:09;;;;;;;14.80;8.97;;;;;;;25.20;100.00;101190.13;2118446;27;20190;-66
2023/08/25 01:20:13;;;;;;;17.13;10.00;;;;;;;24.57;100.00;101090.00;2122619;27;20200;-66
2023/08/25 01:21:14;;;;;;;13.27;9.97;;;;;;;25.18;100.00;101190.66;2117527;27;20225;-65
2023/08/25 01:22:24;;;;;;;14.97;9.50;;;;;;;25.16;100.00;101192.47;2114198;28;20182;-66
2023/08/25 01:23:53;;;;;;;15.43;9.60;;;;;;;25.17;100.00;101191.94;2114161;28;20578;-66
2023/08/25 01:25:03;;;;;;;16.90;9.60;;;;;;;24.87;100.00;101148.47;2113922;28;20598;-66
2023/08/25 01:26:04;;;;;;;14.20;9.67;;;;;;;25.10;100.00;101188.88;2114362;28;20189;-65
2023/08/25 01:27:05;;;;;;;11.60;8.77;;;;;;;25.07;100.00;101187.84;2114006;28;20216;-66
2023/08/25 01:28:06;;;;;;;14.33;9.27;;;;;;;24.38;100.00;101077.66;2113938;27;20202;-65
2023/08/25 01:29:07;;;;;;;13.97;9.87;;;;;;;24.79;100.00;101143.84;2114340;27;20601;-66
2023/08/25 01:30:08;;;;;;;12.13;9.50;;;;;;;25.08;100.00;101175.22;2114275;28;20202;-66
2023/08/25 01:31:09;;;;;;;11.73;9.33;;;;;;;25.08;100.00;101182.97;2114365;28;20167;-66
2023/08/25 01:32:09;;;;;;;10.30;9.20;;;;;;;25.07;100.00;101185.00;2113862;28;20638;-66
2023/08/25 01:33:10;;;;;;;9.87;8.63;;;;;;;25.08;100.00;101188.63;2114432;28;20291;-66
2023/08/25 01:34:13;;;;;;;10.73;8.70;;;;;;;25.09;100.00;101188.13;2122012;27;20192;-66
2023/08/25 01:35:15;;;;;;;11.90;8.60;;;;;;;25.09;100.00;101196.63;2115323;27;20182;-66
2023/08/25 01:36:33;;;;;;;9.87;8.87;;;;;;;25.09;100.00;101187.34;2114049;28;20193;-66
2023/08/25 01:37:41;;;;;;;12.77;9.20;;;;;;;25.10;100.00;101186.03;2121383;27;20185;-65
2023/08/25 01:39:14;;;;;;;10.00;9.00;;;;;;;25.08;100.00;101189.38;2114900;27;20197;-65
2023/08/25 01:40:26;;;;;;;10.43;8.50;;;;;;;25.06;100.00;101192.00;2112771;28;20272;-65
2023/08/25 01:41:43;;;;;;;11.27;8.43;;;;;;;25.04;100.00;101182.44;2121330;27;20197;-66
2023/08/25 01:42:46;;;;;;;11.70;8.37;;;;;;;25.02;100.00;101185.03;2114094;28;20166;-66
2023/08/25 01:43:49;;;;;;;11.07;8.73;;;;;;;25.00;100.00;101179.88;2116033;27;20678;-66
2023/08/25 01:44:52;;;;;;;9.50;8.60;;;;;;;24.99;100.00;101178.34;2122433;27;20234;-65
2023/08/25 01:45:53;;;;;;;13.53;9.37;;;;;;;25.00;100.00;101194.06;2121710;27;20189;-65
2023/08/25 01:46:59;;;;;;;13.50;9.67;;;;;;;24.98;100.00;101188.13;2124031;27;20169;-66
2023/08/25 01:48:03;;;;;;;11.60;8.80;;;;;;;24.96;100.00;101187.88;2116283;28;20178;-66
2023/08/25 01:49:07;;;;;;;10.33;8.97;;;;;;;24.96;100.00;101192.75;2123923;27;20666;-66
2023/08/25 01:50:10;;;;;;;14.10;9.47;;;;;;;24.93;100.00;101191.75;2117041;27;20732;-65
2023/08/25 01:51:11;;;;;;;11.07;9.73;;;;;;;24.92;100.00;101197.94;2115948;28;20185;-66
2023/08/25 01:52:12;;;;;;;10.93;9.83;;;;;;;24.88;100.00;101195.34;2121065;27;20220;-65
2023/08/25 01:53:14;;;;;;;14.43;9.93;;;;;;;24.87;100.00;101201.56;2120039;27;20574;-66
2023/08/25 01:54:14;;;;;;;11.20;9.33;;;;;;;24.84;100.00;101194.09;2115760;28;20194;-65
2023/08/25 01:55:15;;;;;;;11.27;9.73;;;;;;;24.83;100.00;101196.13;2115591;28;20173;-66
2023/08/25 01:56:15;;;;;;;11.50;9.67;;;;;;;24.81;100.00;101198.72;2116369;27;20170;-65
2023/08/25 01:57:15;;;;;;;10.53;9.47;;;;;;;24.82;100.00;101199.50;2124777;27;20598;-65
2023/08/25 01:58:16;;;;;;;11.90;9.73;;;;;;;24.80;100.00;101194.34;2124157;27;20583;-65
2023/08/25 01:59:17;;;;;;;16.87;10.17;;;;;;;24.80;100.00;101200.03;2124363;27;20249;-65
2023/08/25 02:00:19;;;;;;;11.40;9.50;;;;;;;24.42;100.00;101138.44;2124432;27;20265;-66
2023/08/25 02:01:20;;;;;;;10.80;9.13;;;;;;;24.77;100.00;101206.72;2124335;27;20195;-66
2023/08/25 02:02:20;;;;;;;12.17;9.73;;;;;;;24.78;100.00;101199.00;2120258;27;20243;-65
2023/08/25 02:03:21;;;;;;;13.37;9.73;;;;;;;24.77;100.00;101201.03;2117879;27;20204;-65
2023/08/25 02:04:21;;;;;;;11.10;9.93;;;;;;;24.74;100.00;101199.25;2123920;27;20181;-65
2023/08/25 02:05:22;;;;;;;11.53;9.63;;;;;;;24.75;100.00;101203.63;2123115;27;20558;-66
2023/08/25 02:06:22;;;;;;;10.47;9.27;;;;;;;24.75;100.00;101194.34;2116163;28;20193;-65
2023/08/25 02:07:23;;;;;;;10.17;9.17;;;;;;;24.76;100.00;101196.66;2123430;27;20609;-66
2023/08/25 02:08:23;;;;;;;11.70;9.83;;;;;;;24.75;100.00;101200.00;2124004;27;20264;-65
2023/08/25 02:09:24;;;;;;;13.03;9.80;;;;;;;24.73;100.00;101191.25;2124044;27;20185;-65
2023/08/25 02:10:24;;;;;;;11.67;10.03;;;;;;;24.75;100.00;101197.97;2119923;27;20202;-66
2023/08/25 02:11:24;;;;;;;13.83;9.80;;;;;;;24.68;100.00;101181.50;2115866;28;20182;-66
2023/08/25 02:12:25;;;;;;;15.37;9.80;;;;;;;24.73;100.00;101194.88;2115624;28;20704;-66
2023/08/25 02:13:25;;;;;;;10.67;9.53;;;;;;;24.72;100.00;101192.56;2115575;28;20617;-65
2023/08/25 02:14:26;;;;;;;10.27;9.17;;;;;;;24.59;100.00;101175.28;2115946;28;20282;-66
2023/08/25 02:15:26;;;;;;;13.20;9.80;;;;;;;24.71;100.00;101193.84;2115162;28;20209;-65
2023/08/25 02:16:27;;;;;;;10.83;9.40;;;;;;;24.63;100.00;101187.94;2115659;27;20539;-65
2023/08/25 02:17:27;;;;;;;10.43;9.43;;;;;;;24.67;100.00;101184.84;2121557;27;20265;-66
2023/08/25 02:18:27;;;;;;;10.33;9.33;;;;;;;24.68;100.00;101194.88;2119507;27;20272;-65
2023/08/25 02:19:28;;;;;;;10.10;9.10;;;;;;;24.66;100.00;101189.72;2115690;28;20558;-66
2023/08/25 02:20:29;;;;;;;9.93;8.60;;;;;;;24.59;100.00;101193.06;2117828;27;20175;-66
2023/08/25 02:21:29;;;;;;;10.57;9.10;;;;;;;24.64;100.00;101194.34;2123952;27;20178;-65
2023/08/25 02:22:30;;;;;;;10.47;9.40;;;;;;;24.34;100.00;101151.56;2124522;27;20264;-66
2023/08/25 02:23:30;;;;;;;10.20;9.20;;;;;;;24.57;100.00;101197.69;2115948;28;20182;-65
2023/08/25 02:24:30;;;;;;;10.27;9.23;;;;;;;24.54;100.00;101190.19;2115744;28;20278;-66
2023/08/25 02:25:31;;;;;;;10.37;9.37;;;;;;;23.95;100.00;101107.53;2115510;27;20212;-66
2023/08/25 02:26:32;;;;;;;10.53;8.60;;;;;;;24.47;100.00;101197.16;2115577;28;20206;-66
2023/08/25 02:27:32;;;;;;;10.63;9.43;;;;;;;24.45;100.00;101198.94;2115538;28;20214;-65
2023/08/25 02:28:32;;;;;;;11.23;9.60;;;;;;;24.43;100.00;101198.72;2115485;28;20561;-66
2023/08/25 02:29:33;;;;;;;11.47;9.17;;;;;;;24.44;100.00;101197.41;2115483;27;20178;-66
2023/08/25 02:30:33;;;;;;;11.90;8.77;;;;;;;24.41;100.00;101193.53;2116015;28;20206;-65
2023/08/25 02:31:34;;;;;;;9.97;8.97;;;;;;;24.40;100.00;101197.69;2115438;28;20194;-66
2023/08/25 02:32:34;;;;;;;12.60;9.47;;;;;;;24.39;100.00;101198.97;2123044;27;20268;-65
2023/08/25 02:33:36;;;;;;;11.80;9.23;;;;;;;24.27;100.00;101194.59;2123900;27;20280;-66
2023/08/25 02:34:36;;;;;;;10.43;9.43;;;;;;;24.35;100.00;101203.31;2118806;27;20254;-66
2023/08/25 02:35:37;;;;;;;10.63;9.33;;;;;;;24.36;100.00;101211.31;2115159;28;20228;-66
2023/08/25 02:36:37;;;;;;;10.83;9.30;;;;;;;24.39;100.00;101212.34;2115545;28;20185;-65
2023/08/25 02:37:55;;;;;;;9.80;8.70;;;;;;;24.39;100.00;101213.13;2116761;27;20643;-65
2023/08/25 02:38:55;;;;;;;9.67;8.77;;;;;;;24.37;100.00;101210.03;2115738;27;20816;-65
2023/08/25 02:39:56;;;;;;;10.63;9.00;;;;;;;24.39;100.00;101207.47;2115494;27;20178;-66
2023/08/25 02:40:56;;;;;;;10.37;9.27;;;;;;;24.38;100.00;101214.44;2115986;27;20261;-66
2023/08/25 02:41:56;;;;;;;10.40;9.07;;;;;;;24.38;100.00;101217.25;2124418;27;20178;-65
2023/08/25 02:43:04;;;;;;;12.03;9.73;;;;;;;24.36;100.00;101222.66;2123819;27;20228;-65
2023/08/25 02:44:05;;;;;;;10.60;9.27;;;;;;;24.15;100.00;101189.41;2124061;27;20276;-65
2023/08/25 02:45:06;;;;;;;10.53;9.43;;;;;;;24.37;100.00;101234.75;2123771;27;20201;-65
2023/08/25 02:46:06;;;;;;;10.87;9.20;;;;;;;24.35;100.00;101223.94;2123884;27;20713;-66
2023/08/25 02:47:07;;;;;;;11.30;9.63;;;;;;;24.33;100.00;101229.34;2118863;27;20603;-66
2023/08/25 02:48:07;;;;;;;10.43;9.43;;;;;;;24.32;100.00;101229.88;2117929;27;20236;-66
2023/08/25 02:49:08;;;;;;;12.43;9.53;;;;;;;24.32;100.00;101227.81;2115183;28;20170;-66
2023/08/25 02:50:08;;;;;;;10.87;9.60;;;;;;;24.30;100.00;101224.69;2115358;27;20170;-66
2023/08/25 02:51:09;;;;;;;11.70;9.17;;;;;;;24.24;100.00;101218.25;2115901;28;20181;-66
2023/08/25 02:52:09;;;;;;;12.87;9.47;;;;;;;24.28;100.00;101223.66;2123757;27;20181;-65
2023/08/25 02:53:09;;;;;;;10.30;9.20;;;;;;;24.25;100.00;101236.03;2116417;27;20230;-66
2023/08/25 02:54:10;;;;;;;9.77;8.87;;;;;;;24.26;100.00;101231.91;2120964;27;20197;-66
2023/08/25 02:55:14;;;;;;;10.33;9.33;;;;;;;23.89;100.00;101188.84;2118958;27;20251;-65
2023/08/25 02:56:14;;;;;;;10.70;9.27;;;;;;;23.93;100.00;101190.16;2118762;27;20216;-65
2023/08/25 02:57:15;;;;;;;10.70;9.43;;;;;;;24.17;100.00;101232.94;2120944;27;20280;-65
2023/08/25 02:58:15;;;;;;;11.13;9.07;;;;;;;24.18;100.00;101233.69;2115232;27;20272;-65
2023/08/25 02:59:15;;;;;;;10.73;9.63;;;;;;;23.94;100.00;101211.50;2115335;28;20639;-65
2023/08/25 03:00:25;;;;;;;10.37;9.37;;;;;;;24.12;100.00;101227.25;2115765;28;20193;-66
2023/08/25 03:01:25;;;;;;;10.60;9.57;;;;;;;24.11;100.00;101234.97;2115855;28;20163;-66
2023/08/25 03:02:26;;;;;;;12.60;9.90;;;;;;;24.09;100.00;101228.25;2123038;27;20687;-65
2023/08/25 03:03:28;;;;;;;12.50;9.60;;;;;;;24.12;100.00;101235.75;2123626;27;20197;-66
2023/08/25 03:04:29;;;;;;;10.73;9.73;;;;;;;24.12;100.00;101238.56;2123622;27;20201;-65
2023/08/25 03:05:29;;;;;;;12.43;9.37;;;;;;;23.57;100.00;101157.06;2118828;27;20189;-66
2023/08/25 03:06:30;;;;;;;10.60;9.50;;;;;;;24.12;100.00;101244.25;2115320;28;20580;-65
2023/08/25 03:07:32;;;;;;;11.10;10.00;;;;;;;24.09;100.00;101243.19;2114420;28;20210;-65
2023/08/25 03:08:33;;;;;;;12.43;10.07;;;;;;;24.10;100.00;101249.66;2116213;27;20257;-66
2023/08/25 03:09:33;;;;;;;15.10;9.87;;;;;;;23.95;100.00;101234.94;2123549;27;20230;-66
2023/08/25 03:10:33;;;;;;;10.93;9.10;;;;;;;24.06;100.00;101246.28;2132808;27;20183;-66
2023/08/25 03:11:34;;;;;;;10.40;9.27;;;;;;;24.06;100.00;101252.69;2124521;27;20197;-66
2023/08/25 03:12:34;;;;;;;9.90;9.00;;;;;;;24.06;100.00;101255.53;2117187;27;20203;-66
2023/08/25 03:13:35;;;;;;;10.70;9.53;;;;;;;24.00;100.00;101251.16;2115437;27;20209;-66
2023/08/25 03:14:35;;;;;;;10.43;9.33;;;;;;;24.01;100.00;101244.22;2118695;27;20653;-65
2023/08/25 03:15:36;;;;;;;10.07;9.07;;;;;;;23.85;100.00;101223.00;2123382;27;20682;-66
2023/08/25 03:16:36;;;;;;;10.30;9.30;;;;;;;24.03;100.00;101258.63;2123223;27;20615;-66
2023/08/25 03:17:37;;;;;;;9.83;8.93;;;;;;;24.06;100.00;101257.59;2122889;27;20174;-66
2023/08/25 03:18:37;;;;;;;10.90;9.30;;;;;;;24.05;100.00;101265.31;2115650;28;20233;-65
2023/08/25 03:19:38;;;;;;;10.13;9.13;;;;;;;24.05;100.00;101250.41;2115104;28;20196;-65
2023/08/25 03:20:38;;;;;;;10.63;9.63;;;;;;;24.08;100.00;101260.69;2115052;28;20271;-66
2023/08/25 03:21:38;;;;;;;12.53;10.03;;;;;;;24.07;100.00;101261.97;2120935;27;20198;-66
2023/08/25 03:22:39;;;;;;;11.43;8.80;;;;;;;24.05;100.00;101258.91;2123729;27;20314;-65
2023/08/25 03:23:39;;;;;;;11.63;9.53;;;;;;;24.05;100.00;101264.56;2120188;27;20198;-66
2023/08/25 03:24:40;;;;;;;10.73;9.33;;;;;;;24.08;100.00;101267.16;2115038;28;20189;-65
2023/08/25 03:25:40;;;;;;;10.57;9.43;;;;;;;24.09;100.00;101259.41;2115777;27;20576;-66
2023/08/25 03:26:41;;;;;;;11.43;9.27;;;;;;;24.08;100.00;101266.34;2123841;27;20234;-66
2023/08/25 03:27:41;;;;;;;10.27;9.10;;;;;;;24.07;100.00;101262.78;2115487;27;20239;-65
2023/08/25 03:28:41;;;;;;;10.67;9.67;;;;;;;24.10;100.00;101261.72;2121878;27;20719;-65
2023/08/25 03:29:42;;;;;;;10.77;9.53;;;;;;;24.08;100.00;101272.81;2117665;27;20202;-65
2023/08/25 03:30:43;;;;;;;11.37;9.57;;;;;;;24.08;100.00;101267.16;2115193;28;20178;-66
2023/08/25 03:31:43;;;;;;;14.10;9.13;;;;;;;24.03;100.00;101272.78;2118741;27;20224;-66
2023/08/25 03:32:44;;;;;;;12.27;9.50;;;;;;;24.05;100.00;101278.72;2123774;27;20178;-65
2023/08/25 03:33:44;;;;;;;15.03;9.93;;;;;;;24.03;100.00;101272.78;2123213;27;20204;-66
2023/08/25 03:34:45;;;;;;;10.97;9.77;;;;;;;23.99;100.00;101277.91;2123657;27;20245;-65
2023/08/25 03:35:45;;;;;;;11.80;10.40;;;;;;;23.97;100.00;101281.25;2115106;28;20209;-65
2023/08/25 03:36:46;;;;;;;12.90;11.20;;;;;;;23.99;100.00;101281.53;2114929;28;20205;-66
2023/08/25 03:37:46;;;;;;;11.60;10.40;;;;;;;24.00;100.00;101279.47;2127891;27;20564;-66
2023/08/25 03:38:47;;;;;;;15.83;10.10;;;;;;;24.00;100.00;101285.91;2121651;27;20190;-65
2023/08/25 03:39:47;;;;;;;13.80;10.60;;;;;;;24.01;100.00;101284.59;2119200;27;20181;-66
2023/08/25 03:40:47;;;;;;;11.60;10.40;;;;;;;23.97;100.00;101278.44;2123486;27;20204;-65
2023/08/25 03:41:48;;;;;;;12.37;11.03;;;;;;;23.93;100.00;101288.44;2122005;27;20173;-66
2023/08/25 03:42:48;;;;;;;12.27;10.77;;;;;;;23.94;100.00;101293.59;2115115;27;20170;-65
2023/08/25 03:43:49;;;;;;;14.80;11.50;;;;;;;23.96;100.00;101287.44;2123921;27;20197;-66
2023/08/25 03:44:49;;;;;;;14.30;11.47;;;;;;;24.00;100.00;101293.63;2123217;27;20186;-66
2023/08/25 03:45:49;;;;;;;11.80;10.50;;;;;;;23.99;100.00;101290.00;2123370;27;20174;-66
2023/08/25 03:46:50;;;;;;;12.70;10.63;;;;;;;23.97;100.00;101288.97;2117845;27;20194;-66
2023/08/25 03:47:52;;;;;;;15.20;11.73;;;;;;;23.89;100.00;101300.00;2115084;28;20186;-65
2023/08/25 03:48:53;;;;;;;12.07;10.77;;;;;;;23.84;100.00;101292.22;2117514;27;20205;-66
2023/08/25 03:49:54;;;;;;;12.37;9.50;;;;;;;23.87;100.00;101302.56;2122816;27;20173;-66
2023/08/25 03:50:54;;;;;;;13.50;10.00;;;;;;;23.13;100.00;101190.78;2123037;27;20185;-66
2023/08/25 03:51:56;;;;;;;11.13;9.87;;;;;;;23.81;100.00;101301.75;2123847;27;20233;-66
2023/08/25 03:52:56;;;;;;;10.60;9.50;;;;;;;23.81;100.00;101307.41;2115451;27;20194;-66
2023/08/25 03:53:57;;;;;;;10.90;9.37;;;;;;;23.79;100.00;101312.78;2114858;28;20194;-66
2023/08/25 03:54:57;;;;;;;12.03;9.70;;;;;;;23.75;100.00;101308.66;2120799;27;20654;-66
2023/08/25 03:55:58;;;;;;;8.57;7.77;;;;;;;23.82;100.00;101311.78;2118224;27;20196;-60
2023/08/25 03:56:58;;;;;;;8.97;8.07;;;;;;;24.21;100.00;101298.56;2117384;27;20233;-65
2023/08/25 03:57:59;;;;;;;7.50;6.60;;;;;;;24.58;100.00;101315.41;2112858;27;20193;-61
2023/08/25 03:58:59;;;;;;;7.77;6.70;;;;;;;24.38;100.00;101281.63;2119006;27;20174;-63
2023/08/25 04:00:00;;;;;;;6.67;6.07;;;;;;;24.37;100.00;101226.25;2122227;27;20184;-63
2023/08/25 04:01:00;;;;;;;6.67;6.10;;;;;;;25.33;100.00;101309.56;2123951;27;20261;-63
2023/08/25 04:02:01;;;;;;;6.77;6.17;;;;;;;25.74;100.00;101307.66;2123351;27;20674;-62
2023/08/25 04:03:03;;;;;;;7.17;6.47;;;;;;;25.27;100.00;101187.56;2123829;27;20169;-63
2023/08/25 04:04:04;;;;;;;6.93;6.10;;;;;;;26.33;100.00;101308.72;2123838;27;20181;-63
2023/08/25 04:05:04;;;;;;;6.70;6.00;;;;;;;26.60;100.00;101309.84;2120948;27;20205;-62
2023/08/25 04:06:06;;;;;;;9.60;6.20;;;;;;;26.82;100.00;101307.63;2116071;27;20186;-62
2023/08/25 04:07:07;;;;;;;5.90;5.40;;;;;;;27.16;100.00;101306.03;2115208;28;20198;-59
2023/08/25 04:08:07;;;;;;;9.07;6.37;;;;;;;27.32;100.00;101307.19;2123455;27;20181;-59
2023/08/25 04:09:08;;;;;;;6.47;5.83;;;;;;;27.47;100.00;101302.66;2123155;27;20185;-59
2023/08/25 04:10:08;;;;;;;6.83;6.13;;;;;;;27.53;100.00;101319.69;2123290;27;20193;-58
2023/08/25 04:11:09;;;;;;;7.17;6.33;;;;;;;27.68;100.00;101305.81;2123308;27;20174;-60
2023/08/25 04:12:09;;;;;;;6.70;6.13;;;;;;;27.77;100.00;101308.28;2120823;27;20209;-59
2023/08/25 04:13:10;;;;;;;6.30;5.70;;;;;;;27.85;100.00;101310.00;2119395;27;20169;-59
2023/08/25 04:14:10;;;;;;;7.00;6.30;;;;;;;27.98;100.00;101315.03;2123648;27;20251;-59
2023/08/25 04:15:11;;;;;;;7.00;6.23;;;;;;;27.94;100.00;101317.44;2122561;27;20565;-59
2023/08/25 04:16:11;;;;;;;7.30;6.13;;;;;;;27.93;100.00;101313.03;2118194;27;20273;-59
2023/08/25 04:17:13;;;;;;;6.70;5.97;;;;;;;27.94;100.00;101308.88;2117723;27;20189;-59
2023/08/25 04:18:13;;;;;;;9.10;6.23;;;;;;;28.08;100.00;101319.84;2122791;27;20178;-58
2023/08/25 04:19:16;;;;;;;7.30;6.60;;;;;;;28.08;100.00;101305.59;2122424;27;20174;-59
2023/08/25 04:20:17;;;;;;;8.85;6.68;;;;;;;28.22;100.00;101318.63;2115131;28;20273;-59
2023/08/25 04:21:17;;;;;;;6.55;5.95;;;;;;;28.29;100.00;101328.63;2114869;27;20220;-59
2023/08/25 04:22:18;;;;;;;9.82;7.03;;;;;;;28.34;100.00;101331.41;2114454;27;20285;-59
2023/08/25 04:23:18;;;;;;;7.50;6.65;;;;;;;28.43;100.00;101318.88;2119872;27;20204;-59
2023/08/25 04:24:19;;;;;;;10.73;7.00;;;;;;;28.48;100.00;101335.13;2122860;27;20177;-59
2023/08/25 04:25:19;;;;;;;9.98;7.05;;;;;;;28.38;100.00;101331.91;2121983;27;20658;-59
2023/08/25 04:26:20;;;;;;;9.55;7.20;;;;;;;28.15;100.00;101329.84;2115901;28;20201;-58
2023/08/25 04:27:20;;;;;;;8.90;7.57;;;;;;;27.97;100.00;101334.22;2116755;27;20308;-58
2023/08/25 04:28:21;;;;;;;9.55;7.60;;;;;;;27.91;100.00;101321.34;2116439;27;20709;-59
2023/08/25 04:29:21;;;;;;;8.15;7.35;;;;;;;27.96;100.00;101332.69;2119996;27;20182;-60
2023/08/25 04:30:25;;;;;;;8.05;7.00;;;;;;;27.77;100.00;101294.81;2121588;27;20189;-59
2023/08/25 04:31:25;;;;;;;9.48;6.80;;;;;;;28.05;100.00;101332.28;2121019;27;20190;-60
2023/08/25 04:32:26;;;;;;;10.18;7.72;;;;;;;27.94;100.00;101314.59;2123099;27;20214;-60
2023/08/25 04:33:27;;;;;;;10.15;6.80;;;;;;;28.16;100.00;101335.03;2123398;27;20715;-59
2023/08/25 04:34:27;;;;;;;8.43;7.30;;;;;;;28.19;100.00;101328.22;2122979;27;20197;-60
2023/08/25 04:35:28;;;;;;;7.70;6.90;;;;;;;28.24;100.00;101329.47;2112240;27;20281;-60
2023/08/25 04:36:28;;;;;;;11.02;7.28;;;;;;;28.22;100.00;101329.25;2120597;27;20202;-59
2023/08/25 04:37:29;;;;;;;7.80;7.10;;;;;;;28.22;100.00;101326.38;2115611;27;20180;-59
2023/08/25 04:38:29;;;;;;;8.35;6.45;;;;;;;28.23;100.00;101328.72;2122461;27;20567;-63
2023/08/25 04:39:29;;;;;;;11.60;6.70;;;;;;;28.21;100.00;101324.84;2116176;27;20190;-61
2023/08/25 04:40:30;;;;;;;9.40;6.93;;;;;;;28.24;100.00;101332.31;2120037;27;20281;-62
2023/08/25 04:41:30;;;;;;;10.52;6.65;;;;;;;27.92;100.00;101283.78;2118826;27;20607;-60